Gregorio Di Stefano

Scout - Genoa
4 Apr 2027
Sonntag
Verarbeitung

Persönlichkeit

Anpassungsfähigkeit (12) Ehrgeiz (5) Kontroverse (7) Loyalität (5) Druck (16) Professionalität (14) Fairness (19) Temperament (16)

Profil

Trainerstil Demokratisch
Lizenz Kontinentale C
Entschlossenheit 14
Menschenführung 11
Motivation 7
Disziplin 7
Arbeitszufriedenheit
100%
Ermüdung
0%
Rolle Scout
Gehalt 56.0K p/W
Vertrag 14.03.2030

Leistung

Verhalten Gut
Trainingseffektivität
41%
Spielerentwicklung
65%
Verletzungsprävention
65%
Taktische Umsetzung
30%

Letzte Ereignisse

Spieler begutachtet jetzt
Spieler begutachtet jetzt
Nahm an einer Scouting-Besprechung teil jetzt
Nahm an einer Scouting-Besprechung teil jetzt
Spieler begutachtet jetzt
Spieler begutachtet jetzt
Spieler begutachtet 7T her
Spieler begutachtet 7T her

Aktuell beobachtet

100
Spieler Verein Status Fähigkeit Vertrauen Beobachtet Zuletzt beobachtet Letzte Stimme
Stanislav Biblyk Chaika Aktiv 102 / 100 40% 3 02.04.2027 -
Marcos Cuenca Zaragoza Aktiv 111 / 105 40% 1 02.04.2027 -
Francesco Petito Dolomiti Bellunesi Aktiv 90 / 90 40% 1 02.04.2027 -
Jonathan Rowe Bologna Aktiv 130 / 139 40% 6 01.04.2027 -
Jakub Adkonis Lechia Aktiv 97 / 94 40% 3 01.04.2027 -
Patryk Szwedzik Ruch Aktiv 94 / 110 40% 1 01.04.2027 -
Charlie Tasker Brighton Aktiv 99 / 106 40% 1 01.04.2027 -
Juan Pablo De la Reta Maipú Aktiv 105 / 119 40% 1 01.04.2027 -
Martim Cunha Porto Aktiv 99 / 112 40% 2 31.03.2027 -
Simone Kosijer Triestina Aktiv 95 / 111 40% 2 31.03.2027 -
Alexis Fretes Libertad Aktiv 107 / 106 40% 1 31.03.2027 -
Tamerlan Musaev CSKA Moscow Aktiv 132 / 129 40% 2 29.03.2027 -
Mohamed Mallahi Pro Vercelli Aktiv 104 / 110 40% 3 29.03.2027 -
Yasin Özcan Aston Villa Aktiv 115 / 116 40% 1 29.03.2027 -
Sam Parker Swansea City Aktiv 101 / 105 40% 1 29.03.2027 -
Baltazar Blum Macías Stoke City Aktiv 102 / 100 40% 1 29.03.2027 -
Filip Stojilković Pisa Aktiv 119 / 125 40% 1 29.03.2027 -
Fernand Gouré Westerlo Aktiv 111 / 104 40% 2 27.03.2027 -
Cédric Don Maccabi Haifa Aktiv 117 / 136 40% 1 27.03.2027 -
Paul Glatzel Swindon Town Aktiv 101 / 92 40% 1 27.03.2027 -
Fabio Abiuso Carrarese Aktiv 113 / 111 40% 2 25.03.2027 -
Kaio Jorge Cruzeiro Aktiv 137 / 149 40% 3 25.03.2027 -
Alex Tóth Bournemouth Aktiv 127 / 131 40% 1 25.03.2027 -
Tylel Tati Monaco Aktiv 121 / 123 40% 1 25.03.2027 -
Bahmed Deuff Olympique de Marseille Aktiv 118 / 122 40% 2 23.03.2027 -
Mathis Amougou RC Strasbourg Aktiv 104 / 126 40% 1 23.03.2027 -
Miguel Vegas Portuguesa Aktiv 99 / 103 40% 1 23.03.2027 -
Sambou Soumano FC Lorient Aktiv 122 / 127 40% 4 22.03.2027 -
Dardan Shabanhaxhaj Rubin Aktiv 128 / 122 40% 3 22.03.2027 -
Elie N'Gatta Sochaux Aktiv 97 / 106 40% 1 22.03.2027 -
Alejo Gelsomino Gimnasia La Plata Aktiv 102 / 107 40% 1 22.03.2027 -
Sabil Hansen Randers Aktiv 106 / 114 40% 1 22.03.2027 -
Midana Cassamá Portimonense Aktiv 111 / 97 40% 1 22.03.2027 -
Elia Petrelli Forli Aktiv 94 / 88 40% 2 21.03.2027 -
Manfred Ugalde Spartak Moscow Aktiv 131 / 123 40% 1 21.03.2027 -
Slobodan Tedić Akron Aktiv 116 / 110 40% 1 21.03.2027 -
Chris Rigg Sunderland Aktiv 127 / 132 40% 1 20.03.2027 -
Matías Argüello Olimpia Aktiv 99 / 112 40% 1 20.03.2027 -
Stiven Shpendi Empoli Aktiv 115 / 128 40% 3 17.03.2027 -
Danila Shilov Dinamo Stavropol Aktiv 93 / 88 40% 1 17.03.2027 -
Cemran Dansin Orlando Pirates Aktiv 102 / 119 40% 2 16.03.2027 -
Agustín Bustinduy Central Norte Aktiv 93 / 107 40% 1 16.03.2027 -
Maksim Samorodov Akhmat Grozny Aktiv 132 / 120 40% 1 16.03.2027 -
Felipe Augusto Zenit Aktiv 139 / 120 40% 1 14.03.2027 -
Cristian Shpendi Cesena Abgelehnt 139 / 125 69% 2 13.03.2027 Ablehnen
Brayan Gil Baltika Aktiv 121 / 120 40% 2 13.03.2027 -
Freddie Draper Lincoln City Aktiv 105 / 116 40% 3 13.03.2027 -
Ekain Orobengoa Real Sociedad Aktiv 102 / 111 40% 2 12.03.2027 -
Lewis McCann Fleetwood Town Aktiv 100 / 105 40% 1 12.03.2027 -
Luis Vázquez Birmingham Aktiv 133 / 120 40% 1 12.03.2027 -
Jack Vale Alcione Milano Aktiv 91 / 95 40% 2 11.03.2027 -
Demián Troya Lanús Aktiv 106 / 117 40% 2 11.03.2027 -
Obed Vargas Atlético Madrid Aktiv 120 / 128 40% 1 10.03.2027 -
Thiago Silvero River Plate Aktiv 115 / 128 40% 1 10.03.2027 -
Simone Ianesi Pianese Aktiv 100 / 100 40% 4 09.03.2027 -
Morgan Whittaker Middlesbrough Aktiv 135 / 123 40% 1 09.03.2027 -
Gilson Benchimol Akron Aktiv 105 / 99 40% 2 08.03.2027 -
Miguel Falé Pacos de Ferreira Aktiv 109 / 101 40% 1 08.03.2027 -
Jacques Siwe Rubin Aktiv 115 / 121 40% 1 08.03.2027 -
Gonçalo Oliveira Benfica Aktiv 109 / 118 40% 1 05.03.2027 -
Teun Gijselhart Deportivo La Coruña Aktiv 100 / 106 40% 1 05.03.2027 -
Augusto Bando Ascoli Aktiv 95 / 108 40% 1 04.03.2027 -
Albek Gongapshev Shinnik Aktiv 97 / 88 40% 1 03.03.2027 -
Miro Dinamo Makhachkala Aktiv 118 / 104 40% 2 27.02.2027 -
Milan Vidakov Radnicki 1923 Aktiv 111 / 89 40% 2 24.02.2027 -
Kane Drummond Oldham Athletic Aktiv 92 / 93 40% 1 24.02.2027 -
Job Ochieng Real Sociedad Aktiv 99 / 105 40% 1 23.02.2027 -
Juan Manuel Boselli Krasnodar Aktiv 134 / 110 40% 1 15.02.2027 -
Yegor Golenkov Rostov Aktiv 115 / 113 40% 2 14.02.2027 -
Lassina Traoré Shakhtar Aktiv 132 / 113 40% 2 10.02.2027 -
Pavel Meleshin Sochi Aktiv 114 / 121 40% 1 10.02.2027 -
Mésaque Djú Portimonense Aktiv 99 / 94 40% 1 06.02.2027 -
Luciano Gondou CSKA Moscow Aktiv 139 / 127 40% 1 02.02.2027 -
Eguinaldo Shakhtar Aktiv 119 / 144 40% 1 02.02.2027 -
Willem Geubbels Lecce Aktiv 131 / 118 40% 1 23.01.2027 -
Mateo Fernández Angusht Aktiv 69 / 68 40% 1 23.01.2027 -
Marco Rossello Probiy Aktiv 91 / 91 40% 1 21.01.2027 -
Alexander Díaz Deportivo Riestra Aktiv 116 / 120 40% 1 21.01.2027 -
David Romero Parma Aktiv 117 / 136 40% 1 21.01.2027 -
Thierry Rendall Correia Venezia Aktiv 134 / 147 40% 16 20.01.2027 -
Hugo Rincón Athletic Bilbao Aktiv 139 / 141 40% 1 20.01.2027 -
Gabriel Sara Galatasaray Aktiv 136 / 129 40% 5 18.01.2027 -
Edoardo Corvi Parma Verloren 127 / 132 69% 1 18.01.2027 -
Gustavo Mantuan Zenit Aktiv 144 / 137 40% 1 18.01.2027 -
Arturo Cipriani Astra Aktiv 141 / 130 40% 13 16.12.2026 -
Maxence Caqueret Como Aktiv 127 / 141 40% 10 14.12.2026 -
Rodrigo Huescas FC Copenhagen Aktiv 135 / 141 40% 4 30.11.2026 -
Diego Costa Krasnodar Aktiv 124 / 128 40% 3 29.11.2026 -
Emanuele Valeri Parma Aktiv 136 / 143 40% 1 27.11.2026 -
Gedson Fernandes Spartak Moscow Aktiv 149 / 143 40% 1 11.11.2026 -
Pedro Malheiro Al Wasl Aktiv 128 / 128 40% 4 08.11.2026 -
Mohamed Simakan Al-Nassr Aktiv 128 / 136 40% 1 03.11.2026 -
Christos Zafeiris Galatasaray Aktiv 141 / 150 40% 1 03.11.2026 -
Orkun Kökçü Besiktas Aktiv 157 / 148 40% 1 14.10.2026 Mehr Infos nötig
Odilon Kossounou Atalanta Aktiv 148 / 150 40% 1 12.10.2026 -
Sampson Dweh Viktoria Plzen Aktiv 128 / 123 40% 1 12.10.2026 -
İsmail Yüksek Fenerbahce Aktiv 127 / 125 40% 1 09.10.2026 -
Federico Pereira Toluca Aktiv 132 / 142 40% 1 08.10.2026 -
Sebastián Cáceres Club America Aktiv 140 / 133 40% 1 05.10.2026 -
Yacine Adli Al-Shabab Aktiv 128 / 129 40% 1 05.10.2026 -